Time;durP1;ratioP1;P1;durP2;ratioP2;P2;SDS_P1;SDS_P2;PMS_P1;PMS_P2;Temp;Humidity;BMP_temperature;BMP_pressure;BME280_temperature;BME280_humidity;BME280_pressure;Samples;Min_cycle;Max_cycle;Signal;HPM_P1;HPM_P2
2022/03/24 00:01:56;;;;;;;12.87;10.03;;;;;;;;;;5016097;28;20431;-78
2022/03/24 00:04:23;;;;;;;13.57;10.30;;;;;;;;;;5016069;28;20423;-78
2022/03/24 00:06:49;;;;;;;19.20;10.40;;;;;;;;;;5016128;28;20926;-78
2022/03/24 00:09:15;;;;;;;16.67;10.03;;;;;;;;;;5016300;28;20408;-78
2022/03/24 00:11:42;;;;;;;21.13;11.03;;;;;;;;;;5015388;28;20451;-78
2022/03/24 00:14:08;;;;;;;16.43;10.57;;;;;;;;;;5016202;28;20433;-78
2022/03/24 00:16:34;;;;;;;21.80;11.20;;;;;;;;;;5015125;28;20454;-78
2022/03/24 00:19:00;;;;;;;17.57;10.27;;;;;;;;;;5015630;28;20435;-78
2022/03/24 00:21:27;;;;;;;16.20;10.73;;;;;;;;;;5015865;28;20411;-78
2022/03/24 00:23:53;;;;;;;15.37;9.67;;;;;;;;;;5015511;28;20502;-78
2022/03/24 00:26:19;;;;;;;25.50;10.47;;;;;;;;;;5014053;28;20780;-78
2022/03/24 00:28:45;;;;;;;15.33;10.30;;;;;;;;;;5015239;28;20510;-78
2022/03/24 00:31:11;;;;;;;15.03;9.70;;;;;;;;;;5015878;28;20857;-78
2022/03/24 00:33:38;;;;;;;17.37;10.23;;;;;;;;;;5013626;28;20427;-77
2022/03/24 00:36:10;;;;;;;14.50;9.10;;;;;;;;;;5013557;28;20411;-77
2022/03/24 00:38:36;;;;;;;14.30;10.00;;;;;;;;;;5013545;28;20467;-77
2022/03/24 00:41:02;;;;;;;15.70;10.27;;;;;;;;;;5013141;28;20459;-77
2022/03/24 00:43:29;;;;;;;14.27;9.60;;;;;;;;;;5013259;28;20545;-77
2022/03/24 00:45:55;;;;;;;17.87;9.70;;;;;;;;;;5013492;28;20761;-78
2022/03/24 00:48:22;;;;;;;15.47;9.60;;;;;;;;;;5015914;28;20410;-78
2022/03/24 00:50:48;;;;;;;16.83;9.87;;;;;;;;;;5015696;28;20451;-78
2022/03/24 00:53:15;;;;;;;15.40;9.40;;;;;;;;;;5014897;28;20423;-77
2022/03/24 00:55:43;;;;;;;15.80;9.23;;;;;;;;;;5015316;28;20459;-78
2022/03/24 00:58:10;;;;;;;13.53;8.20;;;;;;;;;;5013857;28;20442;-78
2022/03/24 01:00:42;;;;;;;12.03;7.70;;;;;;;;;;5014577;28;20938;-78
2022/03/24 01:03:09;;;;;;;15.07;9.10;;;;;;;;;;5015192;28;20431;-78
2022/03/24 01:05:37;;;;;;;11.63;7.63;;;;;;;;;;5015037;28;20414;-78
2022/03/24 01:08:05;;;;;;;11.23;9.30;;;;;;;;;;5015829;28;20546;-77
2022/03/24 01:10:32;;;;;;;16.30;8.73;;;;;;;;;;5016350;28;20961;-78
2022/03/24 01:13:01;;;;;;;14.00;8.93;;;;;;;;;;5019239;28;20427;-78
2022/03/24 01:15:30;;;;;;;13.47;8.30;;;;;;;;;;5018795;28;20408;-78
2022/03/24 01:17:59;;;;;;;10.00;6.97;;;;;;;;;;5018676;28;20411;-78
2022/03/24 01:20:25;;;;;;;11.40;7.93;;;;;;;;;;5019338;28;20407;-78
2022/03/24 01:22:51;;;;;;;11.47;7.47;;;;;;;;;;5018979;28;20453;-78
2022/03/24 01:25:17;;;;;;;14.93;9.07;;;;;;;;;;5017493;28;20858;-78
2022/03/24 01:27:43;;;;;;;11.50;7.20;;;;;;;;;;5016908;28;20922;-77
2022/03/24 01:30:10;;;;;;;12.20;7.30;;;;;;;;;;5016800;28;20455;-77
2022/03/24 01:32:36;;;;;;;15.13;7.63;;;;;;;;;;5016781;28;20775;-76
2022/03/24 01:35:03;;;;;;;10.67;7.37;;;;;;;;;;5016738;28;20494;-77
2022/03/24 01:37:30;;;;;;;11.00;8.20;;;;;;;;;;5015390;28;20734;-77
2022/03/24 01:39:56;;;;;;;21.10;7.47;;;;;;;;;;5016966;28;20433;-78
2022/03/24 01:42:22;;;;;;;12.17;7.50;;;;;;;;;;5016508;28;20463;-77
2022/03/24 01:44:49;;;;;;;10.23;7.50;;;;;;;;;;5015754;28;20796;-77
2022/03/24 01:47:16;;;;;;;13.13;8.13;;;;;;;;;;5017019;28;20415;-77
2022/03/24 01:49:49;;;;;;;10.77;6.83;;;;;;;;;;5018391;28;20411;-77
2022/03/24 01:52:17;;;;;;;11.47;7.80;;;;;;;;;;5016404;28;20392;-77
2022/03/24 01:54:49;;;;;;;9.13;6.60;;;;;;;;;;5016349;28;20418;-77
2022/03/24 01:57:17;;;;;;;10.50;6.83;;;;;;;;;;5016348;28;20419;-77
2022/03/24 01:59:43;;;;;;;10.40;7.30;;;;;;;;;;5015677;28;20403;-78
2022/03/24 02:02:10;;;;;;;10.23;7.97;;;;;;;;;;5017044;28;20819;-78
2022/03/24 02:04:37;;;;;;;9.97;7.03;;;;;;;;;;5018499;28;20959;-78
2022/03/24 02:07:04;;;;;;;12.90;7.30;;;;;;;;;;5018558;28;20412;-77
2022/03/24 02:09:31;;;;;;;8.43;6.13;;;;;;;;;;5017108;28;20457;-77
2022/03/24 02:11:57;;;;;;;9.67;6.93;;;;;;;;;;5016556;28;20545;-77
2022/03/24 02:14:23;;;;;;;9.93;6.30;;;;;;;;;;5016214;28;20956;-77
2022/03/24 02:16:50;;;;;;;8.30;6.40;;;;;;;;;;5014823;28;20403;-77
2022/03/24 02:19:23;;;;;;;10.17;6.00;;;;;;;;;;5016288;28;20415;-77
2022/03/24 02:21:52;;;;;;;7.90;6.90;;;;;;;;;;5015542;28;20390;-77
2022/03/24 02:24:19;;;;;;;10.10;6.67;;;;;;;;;;5015885;28;20427;-77
2022/03/24 02:26:46;;;;;;;9.70;6.30;;;;;;;;;;5016085;28;20497;-77
2022/03/24 02:29:15;;;;;;;9.40;6.43;;;;;;;;;;5013586;28;20442;-77
2022/03/24 02:31:43;;;;;;;13.13;7.73;;;;;;;;;;5010872;28;20470;-77
2022/03/24 02:36:56;;;;;;;10.00;6.03;;;;;;;;;;4996465;28;20464;-76
2022/03/24 02:39:22;;;;;;;10.97;6.77;;;;;;;;;;4995893;28;20486;-76
2022/03/24 02:41:50;;;;;;;8.90;6.80;;;;;;;;;;4995780;28;20408;-77
2022/03/24 02:44:17;;;;;;;9.33;6.27;;;;;;;;;;4995561;28;20448;-77
2022/03/24 02:46:47;;;;;;;10.40;7.13;;;;;;;;;;4995070;28;20538;-77
2022/03/24 02:49:17;;;;;;;9.50;6.40;;;;;;;;;;4996737;28;20407;-77
2022/03/24 02:51:43;;;;;;;11.03;6.73;;;;;;;;;;4996145;28;20986;-76
2022/03/24 02:54:10;;;;;;;7.87;6.47;;;;;;;;;;4995927;28;20432;-76
2022/03/24 02:56:37;;;;;;;10.43;5.97;;;;;;;;;;4996296;28;20435;-78
2022/03/24 02:59:04;;;;;;;7.90;6.27;;;;;;;;;;4997772;28;20417;-78
2022/03/24 03:01:30;;;;;;;8.30;6.50;;;;;;;;;;4997591;28;20836;-77
2022/03/24 03:03:56;;;;;;;8.63;6.50;;;;;;;;;;4997497;28;20428;-77
2022/03/24 03:06:23;;;;;;;7.93;5.80;;;;;;;;;;4997840;28;20404;-77
2022/03/24 03:08:49;;;;;;;12.80;6.93;;;;;;;;;;4997416;28;20420;-77
2022/03/24 03:11:23;;;;;;;10.03;6.47;;;;;;;;;;4997425;28;20455;-77
2022/03/24 03:13:50;;;;;;;14.90;7.73;;;;;;;;;;4997101;28;20420;-77
2022/03/24 03:16:16;;;;;;;9.20;6.33;;;;;;;;;;4997095;28;20401;-77
2022/03/24 03:18:43;;;;;;;10.07;6.83;;;;;;;;;;4996957;28;20401;-77
2022/03/24 03:21:09;;;;;;;9.60;6.50;;;;;;;;;;4996675;28;20447;-77
2022/03/24 03:23:38;;;;;;;8.23;6.50;;;;;;;;;;4997090;28;20839;-77
2022/03/24 03:26:07;;;;;;;12.17;7.63;;;;;;;;;;4996993;28;20459;-77
2022/03/24 03:28:34;;;;;;;12.97;6.63;;;;;;;;;;4996999;28;20401;-77
2022/03/24 03:31:00;;;;;;;9.70;6.20;;;;;;;;;;4996375;28;20487;-77
2022/03/24 03:33:26;;;;;;;9.27;6.97;;;;;;;;;;4995623;28;20434;-77
2022/03/24 03:35:52;;;;;;;10.73;7.40;;;;;;;;;;4997085;28;20905;-77
2022/03/24 03:38:19;;;;;;;12.43;7.00;;;;;;;;;;4996440;28;20396;-77
2022/03/24 03:40:48;;;;;;;8.17;6.80;;;;;;;;;;4996634;28;20415;-77
2022/03/24 03:43:14;;;;;;;10.80;7.30;;;;;;;;;;4996615;28;20480;-78
2022/03/24 03:45:41;;;;;;;9.93;6.33;;;;;;;;;;5010934;28;20416;-78
2022/03/24 03:48:07;;;;;;;10.43;6.90;;;;;;;;;;5015808;28;20389;-77
2022/03/24 03:50:34;;;;;;;11.80;6.10;;;;;;;;;;5015841;28;20451;-77
2022/03/24 03:53:00;;;;;;;10.10;6.40;;;;;;;;;;5010364;28;20436;-77
2022/03/24 03:55:27;;;;;;;10.70;6.63;;;;;;;;;;4996994;28;20401;-77
2022/03/24 03:57:54;;;;;;;9.50;6.70;;;;;;;;;;4995909;28;20491;-77
2022/03/24 04:03:05;;;;;;;13.63;6.70;;;;;;;;;;5009659;28;20430;-77
2022/03/24 04:05:31;;;;;;;8.97;6.20;;;;;;;;;;5029193;28;20880;-77
2022/03/24 04:07:58;;;;;;;7.63;5.63;;;;;;;;;;5008319;28;20408;-78
2022/03/24 04:10:27;;;;;;;11.10;6.40;;;;;;;;;;4999360;28;20495;-78
2022/03/24 04:12:53;;;;;;;10.57;6.90;;;;;;;;;;4995236;28;20471;-77
2022/03/24 04:15:19;;;;;;;14.23;6.60;;;;;;;;;;4994971;28;20772;-78
2022/03/24 04:17:45;;;;;;;14.10;7.40;;;;;;;;;;4993213;28;20416;-77
2022/03/24 04:20:13;;;;;;;9.37;6.90;;;;;;;;;;4994626;28;20412;-78
2022/03/24 04:22:39;;;;;;;13.40;7.50;;;;;;;;;;4993003;28;20436;-77
2022/03/24 04:25:06;;;;;;;14.43;7.70;;;;;;;;;;5006029;28;20419;-78
2022/03/24 04:27:32;;;;;;;11.17;7.17;;;;;;;;;;5014282;28;20454;-77
2022/03/24 04:29:58;;;;;;;12.53;7.87;;;;;;;;;;5015360;28;20779;-77
2022/03/24 04:32:25;;;;;;;9.33;7.37;;;;;;;;;;5014189;28;20423;-77
2022/03/24 04:34:51;;;;;;;9.07;6.93;;;;;;;;;;5013481;28;20434;-77
2022/03/24 04:37:18;;;;;;;9.73;6.50;;;;;;;;;;5012370;28;20478;-77
2022/03/24 04:39:44;;;;;;;11.40;7.70;;;;;;;;;;5013256;28;20415;-77
2022/03/24 04:42:10;;;;;;;10.87;7.17;;;;;;;;;;5011918;28;20908;-77
2022/03/24 04:44:36;;;;;;;8.50;6.37;;;;;;;;;;5013175;28;20392;-76
2022/03/24 04:47:02;;;;;;;10.53;6.50;;;;;;;;;;5009849;28;20553;-77
2022/03/24 04:49:28;;;;;;;9.60;7.13;;;;;;;;;;5008852;28;20412;-76
2022/03/24 04:51:55;;;;;;;10.63;6.83;;;;;;;;;;4995611;28;20475;-77
2022/03/24 04:54:21;;;;;;;8.90;6.30;;;;;;;;;;5004204;28;20465;-77
2022/03/24 04:56:47;;;;;;;17.80;10.60;;;;;;;;;;5014116;28;20428;-77
2022/03/24 04:59:13;;;;;;;18.90;9.43;;;;;;;;;;5013966;28;20408;-77
2022/03/24 05:01:40;;;;;;;14.17;6.73;;;;;;;;;;5016330;28;20461;-77
2022/03/24 05:04:07;;;;;;;9.23;5.90;;;;;;;;;;5013085;28;20438;-77
2022/03/24 05:06:34;;;;;;;12.73;6.90;;;;;;;;;;5013382;28;20414;-77
2022/03/24 05:09:00;;;;;;;9.90;6.97;;;;;;;;;;5013387;28;20407;-76
2022/03/24 05:11:26;;;;;;;17.70;7.57;;;;;;;;;;5014144;28;20449;-76
2022/03/24 05:13:52;;;;;;;14.50;7.93;;;;;;;;;;5013521;28;20961;-77
2022/03/24 05:16:18;;;;;;;15.43;7.80;;;;;;;;;;5013032;28;20766;-78
2022/03/24 05:18:45;;;;;;;15.50;7.17;;;;;;;;;;5012948;28;20820;-77
2022/03/24 05:21:12;;;;;;;10.37;6.37;;;;;;;;;;5013916;28;20411;-78
2022/03/24 05:23:38;;;;;;;12.00;7.00;;;;;;;;;;5014246;28;20503;-77
2022/03/24 05:26:04;;;;;;;16.23;7.17;;;;;;;;;;5014084;28;20946;-78
2022/03/24 05:28:30;;;;;;;10.40;7.23;;;;;;;;;;5014573;28;20411;-78
2022/03/24 05:30:56;;;;;;;11.67;7.63;;;;;;;;;;5013054;28;20446;-76
2022/03/24 05:33:23;;;;;;;17.40;10.53;;;;;;;;;;5014974;28;20528;-78
2022/03/24 05:35:49;;;;;;;14.43;6.80;;;;;;;;;;5014019;28;20395;-77
2022/03/24 05:38:15;;;;;;;12.53;7.20;;;;;;;;;;5013225;28;20407;-76
2022/03/24 05:40:41;;;;;;;16.70;6.50;;;;;;;;;;5013696;28;20407;-76
2022/03/24 05:43:07;;;;;;;21.60;8.90;;;;;;;;;;5030629;23;20490;-76
2022/03/24 05:45:34;;;;;;;21.20;8.40;;;;;;;;;;5050126;28;20457;-76
2022/03/24 05:48:00;;;;;;;13.07;7.80;;;;;;;;;;5033546;28;20426;-74
2022/03/24 05:50:27;;;;;;;11.77;7.87;;;;;;;;;;5032363;28;20446;-76
2022/03/24 05:52:54;;;;;;;20.97;7.93;;;;;;;;;;5035021;28;20844;-76
2022/03/24 05:55:20;;;;;;;17.97;7.10;;;;;;;;;;5052636;28;20497;-74
2022/03/24 05:57:46;;;;;;;13.77;9.20;;;;;;;;;;5062626;28;20404;-75
2022/03/24 06:00:13;;;;;;;14.60;7.70;;;;;;;;;;5076605;28;20774;-75
2022/03/24 06:02:39;;;;;;;13.73;8.33;;;;;;;;;;5076230;28;20415;-75
2022/03/24 06:05:08;;;;;;;13.73;7.03;;;;;;;;;;5076071;28;20416;-75
2022/03/24 06:07:35;;;;;;;13.67;8.17;;;;;;;;;;5075749;28;20400;-75
2022/03/24 06:10:01;;;;;;;10.00;7.00;;;;;;;;;;5074940;28;20420;-74
2022/03/24 06:12:27;;;;;;;10.30;6.70;;;;;;;;;;5076144;28;20960;-75
2022/03/24 06:14:53;;;;;;;9.53;7.33;;;;;;;;;;5076344;28;20494;-75
2022/03/24 06:17:20;;;;;;;16.63;7.80;;;;;;;;;;5076406;28;20427;-76
2022/03/24 06:19:52;;;;;;;21.03;9.10;;;;;;;;;;5075827;28;20416;-76
2022/03/24 06:22:18;;;;;;;11.90;7.60;;;;;;;;;;5076108;28;20732;-76
2022/03/24 06:24:44;;;;;;;14.43;7.97;;;;;;;;;;5075673;28;20432;-76
2022/03/24 06:27:11;;;;;;;14.40;8.13;;;;;;;;;;5074358;28;20466;-76
2022/03/24 06:29:37;;;;;;;18.73;7.83;;;;;;;;;;5075956;28;20431;-76
2022/03/24 06:32:05;;;;;;;12.60;7.53;;;;;;;;;;5075633;28;20432;-76
2022/03/24 06:34:31;;;;;;;12.47;7.20;;;;;;;;;;5075303;28;20881;-76
2022/03/24 06:36:57;;;;;;;12.13;6.80;;;;;;;;;;5075935;28;20401;-76
2022/03/24 06:39:24;;;;;;;13.80;7.47;;;;;;;;;;5075607;28;20401;-76
2022/03/24 06:41:50;;;;;;;10.00;6.40;;;;;;;;;;5075533;28;20405;-76
2022/03/24 06:44:16;;;;;;;13.00;7.80;;;;;;;;;;5075633;28;20527;-76
2022/03/24 06:46:42;;;;;;;16.17;7.83;;;;;;;;;;5076121;28;20400;-77
2022/03/24 06:49:11;;;;;;;16.00;8.00;;;;;;;;;;5078617;28;20401;-76
2022/03/24 06:51:37;;;;;;;20.20;8.63;;;;;;;;;;5074706;28;20444;-76
2022/03/24 06:54:04;;;;;;;13.33;7.23;;;;;;;;;;5075570;28;20456;-76
2022/03/24 06:56:30;;;;;;;11.27;7.63;;;;;;;;;;5075167;28;20395;-76
2022/03/24 06:58:56;;;;;;;14.70;8.63;;;;;;;;;;5075156;28;20411;-76
2022/03/24 07:01:22;;;;;;;11.40;7.93;;;;;;;;;;5075084;28;20428;-76
2022/03/24 07:03:49;;;;;;;14.20;8.17;;;;;;;;;;5074848;28;20477;-76
2022/03/24 07:06:15;;;;;;;12.50;8.00;;;;;;;;;;5074685;28;20753;-76
2022/03/24 07:08:41;;;;;;;11.97;9.03;;;;;;;;;;5074685;28;20423;-76
2022/03/24 07:11:07;;;;;;;14.67;9.00;;;;;;;;;;5074815;28;20455;-76
2022/03/24 07:13:33;;;;;;;15.37;7.77;;;;;;;;;;5074774;28;20428;-76
2022/03/24 07:16:00;;;;;;;22.03;9.20;;;;;;;;;;5075006;28;20549;-76
2022/03/24 07:18:26;;;;;;;17.47;9.60;;;;;;;;;;5074600;28;20895;-76
2022/03/24 07:20:52;;;;;;;13.90;7.83;;;;;;;;;;5056896;28;20412;-76
2022/03/24 07:23:18;;;;;;;14.90;8.10;;;;;;;;;;5074530;28;20793;-76
2022/03/24 07:25:44;;;;;;;21.37;8.80;;;;;;;;;;5074737;28;20839;-76
2022/03/24 07:28:14;;;;;;;11.40;7.00;;;;;;;;;;5074751;28;20409;-75
2022/03/24 07:30:40;;;;;;;10.90;6.53;;;;;;;;;;5074976;28;20448;-76
2022/03/24 07:33:09;;;;;;;15.23;6.20;;;;;;;;;;5074373;28;20417;-76
2022/03/24 07:35:35;;;;;;;16.60;7.50;;;;;;;;;;5074765;28;20426;-76
2022/03/24 07:38:01;;;;;;;15.50;7.53;;;;;;;;;;5074294;28;20889;-76
2022/03/24 07:40:28;;;;;;;19.03;9.63;;;;;;;;;;5074293;28;20538;-76
2022/03/24 07:42:56;;;;;;;14.63;7.60;;;;;;;;;;5074045;28;20401;-75
2022/03/24 07:45:23;;;;;;;14.03;7.47;;;;;;;;;;5074341;28;20393;-76
2022/03/24 07:48:08;;;;;;;8.73;6.60;;;;;;;;;;5071094;28;20759;-76
2022/03/24 07:50:38;;;;;;;11.63;7.27;;;;;;;;;;5061654;28;20487;-76
2022/03/24 07:53:16;;;;;;;14.53;7.10;;;;;;;;;;5057540;28;20512;-76
2022/03/24 07:55:43;;;;;;;10.43;6.97;;;;;;;;;;5064296;28;20416;-76
2022/03/24 07:58:10;;;;;;;16.53;7.03;;;;;;;;;;5054097;28;20462;-76
2022/03/24 08:00:36;;;;;;;13.40;6.93;;;;;;;;;;5054757;28;20428;-75
2022/03/24 08:03:05;;;;;;;12.90;7.87;;;;;;;;;;5063923;28;20442;-75
2022/03/24 08:05:32;;;;;;;17.50;6.80;;;;;;;;;;5058030;28;20417;-75
2022/03/24 08:07:58;;;;;;;12.65;6.85;;;;;;;;;;5059196;28;20470;-75
2022/03/24 08:10:24;;;;;;;16.40;7.03;;;;;;;;;;5060768;28;21040;-75
2022/03/24 08:12:50;;;;;;;10.85;6.63;;;;;;;;;;5069152;28;20794;-75
2022/03/24 08:15:16;;;;;;;11.75;6.22;;;;;;;;;;5056392;28;20415;-75
2022/03/24 08:17:42;;;;;;;10.87;7.13;;;;;;;;;;5062070;28;20257;-77
2022/03/24 08:20:09;;;;;;;12.50;6.70;;;;;;;;;;5063788;28;20417;-77
2022/03/24 08:22:35;;;;;;;10.63;6.10;;;;;;;;;;5061213;28;20477;-76
2022/03/24 08:25:01;;;;;;;9.07;6.40;;;;;;;;;;5060943;28;20199;-75
2022/03/24 08:27:27;;;;;;;7.77;5.87;;;;;;;;;;5056211;28;20449;-77
2022/03/24 08:29:56;;;;;;;10.63;6.25;;;;;;;;;;5057196;28;20445;-77
2022/03/24 08:32:22;;;;;;;14.87;7.50;;;;;;;;;;5058993;28;20175;-77
2022/03/24 08:34:50;;;;;;;32.70;7.87;;;;;;;;;;5062530;28;20429;-76
2022/03/24 08:37:16;;;;;;;9.93;6.40;;;;;;;;;;5065216;28;20484;-75
2022/03/24 08:39:42;;;;;;;10.90;6.30;;;;;;;;;;5068634;28;20413;-75
2022/03/24 08:42:08;;;;;;;7.50;5.67;;;;;;;;;;5071611;28;20408;-76
2022/03/24 08:44:34;;;;;;;7.23;5.53;;;;;;;;;;5056414;28;20499;-76
2022/03/24 08:47:00;;;;;;;11.87;6.73;;;;;;;;;;5056832;28;20428;-76
2022/03/24 08:49:26;;;;;;;6.70;5.87;;;;;;;;;;5059934;28;20476;-76
2022/03/24 08:51:53;;;;;;;8.40;6.33;;;;;;;;;;5058103;28;20825;-76
2022/03/24 08:54:19;;;;;;;11.30;6.13;;;;;;;;;;5055439;28;20527;-75
2022/03/24 08:56:45;;;;;;;9.97;6.60;;;;;;;;;;5058794;28;20416;-75
2022/03/24 08:59:12;;;;;;;14.50;6.33;;;;;;;;;;5069956;28;20492;-76
2022/03/24 09:01:41;;;;;;;11.10;7.07;;;;;;;;;;5067679;28;20478;-76
2022/03/24 09:04:07;;;;;;;9.07;6.78;;;;;;;;;;5065115;28;20423;-76
2022/03/24 09:06:33;;;;;;;7.80;6.10;;;;;;;;;;5068390;28;20174;-75
2022/03/24 09:08:59;;;;;;;9.80;6.40;;;;;;;;;;5063326;28;20424;-77
2022/03/24 09:11:25;;;;;;;9.60;6.97;;;;;;;;;;5064485;28;20811;-76
2022/03/24 09:13:52;;;;;;;12.85;7.82;;;;;;;;;;5057415;28;20923;-76
2022/03/24 09:16:18;;;;;;;8.23;6.40;;;;;;;;;;5058669;28;20244;-76
2022/03/24 09:18:44;;;;;;;14.90;7.47;;;;;;;;;;5060017;28;20530;-74
2022/03/24 09:21:11;;;;;;;13.57;6.87;;;;;;;;;;5057221;28;20410;-75
2022/03/24 09:23:37;;;;;;;10.80;7.60;;;;;;;;;;5057729;28;20438;-76
2022/03/24 09:26:03;;;;;;;10.10;7.75;;;;;;;;;;5058310;28;20548;-75
2022/03/24 09:28:29;;;;;;;10.80;7.90;;;;;;;;;;5065049;28;20179;-76
2022/03/24 09:30:56;;;;;;;10.10;8.23;;;;;;;;;;5058003;28;20461;-77
2022/03/24 09:33:22;;;;;;;9.87;8.00;;;;;;;;;;5069391;28;20455;-76
2022/03/24 09:35:49;;;;;;;11.20;8.00;;;;;;;;;;5066637;28;20415;-75
2022/03/24 09:38:15;;;;;;;10.70;7.83;;;;;;;;;;5070378;28;20174;-75
2022/03/24 09:40:41;;;;;;;10.53;6.70;;;;;;;;;;5061253;28;20891;-77
2022/03/24 09:43:07;;;;;;;10.80;8.30;;;;;;;;;;5064908;28;20924;-75
2022/03/24 09:45:33;;;;;;;10.77;8.60;;;;;;;;;;5065324;28;20420;-75
2022/03/24 09:48:00;;;;;;;11.93;8.37;;;;;;;;;;5060532;28;20520;-75
2022/03/24 09:50:28;;;;;;;14.20;9.30;;;;;;;;;;5068536;28;20456;-76
2022/03/24 09:52:54;;;;;;;12.67;8.63;;;;;;;;;;5065586;28;20412;-75
2022/03/24 09:55:20;;;;;;;11.50;8.13;;;;;;;;;;5071837;28;20491;-75
2022/03/24 09:57:48;;;;;;;12.87;9.50;;;;;;;;;;5070764;28;20773;-76
2022/03/24 10:00:14;;;;;;;11.83;9.40;;;;;;;;;;5061547;28;20478;-75
2022/03/24 10:02:40;;;;;;;16.50;10.23;;;;;;;;;;5069034;28;20425;-75
2022/03/24 10:05:08;;;;;;;11.40;8.93;;;;;;;;;;5064447;28;20432;-75
2022/03/24 10:07:36;;;;;;;13.13;9.77;;;;;;;;;;5065634;28;20503;-75
2022/03/24 10:10:02;;;;;;;19.03;10.77;;;;;;;;;;5064460;28;20417;-76
2022/03/24 10:12:39;;;;;;;17.53;10.60;;;;;;;;;;5070259;28;20542;-75
2022/03/24 10:15:07;;;;;;;14.77;11.20;;;;;;;;;;5064000;28;20797;-76
2022/03/24 10:17:36;;;;;;;11.80;9.33;;;;;;;;;;5063594;28;20421;-76
2022/03/24 10:20:07;;;;;;;23.00;11.00;;;;;;;;;;5060581;28;20414;-77
2022/03/24 10:22:33;;;;;;;11.43;8.80;;;;;;;;;;5064875;28;20938;-76
2022/03/24 10:25:00;;;;;;;11.50;9.00;;;;;;;;;;5058703;28;20461;-74
2022/03/24 10:27:27;;;;;;;10.37;8.03;;;;;;;;;;5067738;28;20448;-75
2022/03/24 10:29:55;;;;;;;15.57;9.50;;;;;;;;;;5072815;28;20928;-75
2022/03/24 10:32:21;;;;;;;15.27;8.97;;;;;;;;;;5058231;28;20504;-77
2022/03/24 10:34:51;;;;;;;12.03;9.37;;;;;;;;;;5064329;28;20437;-76
2022/03/24 10:37:19;;;;;;;17.80;9.13;;;;;;;;;;5062310;28;20793;-75
2022/03/24 10:40:06;;;;;;;10.60;8.90;;;;;;;;;;5083098;28;20416;-76
2022/03/24 10:42:33;;;;;;;13.10;9.83;;;;;;;;;;5074462;28;20967;-75
2022/03/24 10:45:02;;;;;;;12.67;8.70;;;;;;;;;;5075128;28;20444;-75
2022/03/24 10:47:39;;;;;;;13.03;9.60;;;;;;;;;;5059448;28;20496;-76
2022/03/24 10:50:28;;;;;;;13.87;9.77;;;;;;;;;;5067499;28;20423;-76
2022/03/24 10:52:57;;;;;;;15.33;8.70;;;;;;;;;;5061055;28;20421;-75
2022/03/24 10:55:42;;;;;;;14.27;8.80;;;;;;;;;;5067686;28;20415;-76
2022/03/24 10:58:10;;;;;;;11.63;9.03;;;;;;;;;;5075285;28;20471;-76
2022/03/24 11:00:38;;;;;;;13.17;9.77;;;;;;;;;;5064104;28;20421;-76
2022/03/24 11:03:04;;;;;;;10.83;9.20;;;;;;;;;;5066717;28;20433;-77
2022/03/24 11:05:30;;;;;;;13.77;9.73;;;;;;;;;;5065550;28;20436;-76
2022/03/24 11:07:56;;;;;;;11.80;9.03;;;;;;;;;;5061997;28;20416;-76
2022/03/24 11:10:23;;;;;;;12.20;8.83;;;;;;;;;;5082372;28;20455;-76
2022/03/24 11:12:51;;;;;;;12.30;10.10;;;;;;;;;;5063688;28;20462;-76
2022/03/24 11:15:17;;;;;;;12.83;10.53;;;;;;;;;;5059900;28;20447;-76
2022/03/24 11:17:43;;;;;;;13.75;10.27;;;;;;;;;;5070986;28;20446;-76
2022/03/24 11:20:09;;;;;;;13.30;9.40;;;;;;;;;;5068436;28;20257;-76
2022/03/24 11:22:55;;;;;;;10.33;9.00;;;;;;;;;;5058061;28;20456;-76
2022/03/24 11:25:22;;;;;;;11.73;9.20;;;;;;;;;;5065982;28;20412;-75
2022/03/24 11:27:49;;;;;;;15.40;9.90;;;;;;;;;;5065921;28;20421;-77
2022/03/24 11:30:16;;;;;;;14.00;9.57;;;;;;;;;;5070887;28;20492;-76
2022/03/24 11:32:44;;;;;;;9.93;8.93;;;;;;;;;;5065720;28;20498;-76
2022/03/24 11:35:11;;;;;;;15.73;10.23;;;;;;;;;;5078622;28;20417;-76
2022/03/24 11:37:38;;;;;;;14.77;9.67;;;;;;;;;;5067039;28;20830;-76
2022/03/24 11:40:04;;;;;;;12.80;9.63;;;;;;;;;;5062460;28;20469;-76
2022/03/24 11:42:32;;;;;;;12.33;9.60;;;;;;;;;;5062628;28;20475;-76
2022/03/24 11:45:01;;;;;;;12.00;9.50;;;;;;;;;;5063824;28;20448;-76
2022/03/24 11:47:34;;;;;;;12.10;10.10;;;;;;;;;;5058651;28;20421;-76
2022/03/24 11:50:10;;;;;;;16.33;9.77;;;;;;;;;;5070830;28;20488;-77
2022/03/24 11:52:36;;;;;;;15.83;9.80;;;;;;;;;;5066081;28;20421;-78
2022/03/24 11:55:03;;;;;;;16.50;10.00;;;;;;;;;;5066558;28;20429;-76
2022/03/24 11:57:33;;;;;;;18.53;11.73;;;;;;;;;;5059492;28;20432;-77
2022/03/24 12:00:15;;;;;;;14.10;9.23;;;;;;;;;;5059222;28;20912;-76
2022/03/24 12:02:45;;;;;;;16.27;10.27;;;;;;;;;;5067477;28;20901;-76
2022/03/24 12:05:11;;;;;;;13.93;9.90;;;;;;;;;;5066081;28;20405;-77
2022/03/24 12:07:38;;;;;;;12.37;10.00;;;;;;;;;;5067785;28;20416;-76
2022/03/24 12:10:04;;;;;;;13.88;10.15;;;;;;;;;;5062068;28;20402;-77
2022/03/24 12:12:30;;;;;;;16.20;10.10;;;;;;;;;;5068734;28;20181;-76
2022/03/24 12:14:58;;;;;;;12.13;10.10;;;;;;;;;;5056940;28;20960;-77
2022/03/24 12:17:32;;;;;;;12.60;9.63;;;;;;;;;;5063152;28;20566;-77
2022/03/24 12:20:00;;;;;;;13.27;9.87;;;;;;;;;;5066576;28;20539;-77
2022/03/24 12:22:26;;;;;;;11.97;8.77;;;;;;;;;;5067439;28;20460;-77
2022/03/24 12:25:02;;;;;;;13.53;9.93;;;;;;;;;;5061776;28;20482;-76
2022/03/24 12:27:28;;;;;;;15.30;9.90;;;;;;;;;;5063625;28;20928;-76
2022/03/24 12:30:15;;;;;;;11.10;9.30;;;;;;;;;;5065752;28;20424;-77
2022/03/24 12:32:42;;;;;;;14.40;10.97;;;;;;;;;;5059501;28;20425;-76
2022/03/24 12:35:08;;;;;;;12.60;10.03;;;;;;;;;;5056666;28;20484;-76
2022/03/24 12:37:34;;;;;;;11.27;8.90;;;;;;;;;;5064725;28;20417;-77
2022/03/24 12:40:09;;;;;;;11.80;9.60;;;;;;;;;;5064303;28;20413;-77
2022/03/24 12:42:43;;;;;;;11.13;9.50;;;;;;;;;;5072934;28;20415;-77
2022/03/24 12:45:18;;;;;;;14.40;10.67;;;;;;;;;;5067575;28;20429;-75
2022/03/24 12:47:50;;;;;;;15.17;8.43;;;;;;;;;;5060715;28;20431;-75
2022/03/24 12:50:16;;;;;;;12.60;9.90;;;;;;;;;;5069479;28;20751;-76
2022/03/24 12:52:56;;;;;;;14.43;10.23;;;;;;;;;;5071627;28;20466;-75
2022/03/24 12:55:23;;;;;;;12.87;10.23;;;;;;;;;;5058113;28;20424;-75
2022/03/24 12:57:56;;;;;;;13.37;10.77;;;;;;;;;;5074258;28;20461;-76
2022/03/24 13:00:27;;;;;;;14.73;11.43;;;;;;;;;;5071152;28;20428;-76
2022/03/24 13:02:54;;;;;;;13.07;10.60;;;;;;;;;;5056882;28;20413;-76
2022/03/24 13:05:27;;;;;;;11.90;10.70;;;;;;;;;;5075567;28;20424;-76
2022/03/24 13:07:54;;;;;;;14.80;11.17;;;;;;;;;;5073940;28;20494;-76
2022/03/24 13:10:21;;;;;;;15.60;11.17;;;;;;;;;;5073587;28;21028;-76
2022/03/24 13:12:49;;;;;;;13.50;10.00;;;;;;;;;;5060560;28;20413;-76
2022/03/24 13:15:27;;;;;;;18.80;10.67;;;;;;;;;;5081868;28;20764;-76
2022/03/24 13:18:01;;;;;;;10.77;9.07;;;;;;;;;;5069991;28;20440;-76
2022/03/24 13:20:37;;;;;;;21.50;11.33;;;;;;;;;;5062653;28;20428;-76
2022/03/24 13:23:25;;;;;;;14.87;10.57;;;;;;;;;;5067675;28;20470;-77
2022/03/24 13:25:56;;;;;;;16.30;11.87;;;;;;;;;;5065547;28;20475;-76
2022/03/24 13:28:26;;;;;;;13.70;10.80;;;;;;;;;;5081394;28;20404;-75
2022/03/24 13:30:52;;;;;;;17.53;11.17;;;;;;;;;;5071053;28;20465;-77
2022/03/24 13:33:20;;;;;;;13.90;11.17;;;;;;;;;;5068613;28;20934;-76
2022/03/24 13:35:47;;;;;;;13.50;11.57;;;;;;;;;;5065618;28;20460;-75
2022/03/24 13:38:14;;;;;;;15.60;10.83;;;;;;;;;;5067035;28;20540;-75
2022/03/24 13:40:43;;;;;;;15.80;10.83;;;;;;;;;;5065943;28;20413;-76
2022/03/24 13:43:10;;;;;;;15.27;10.90;;;;;;;;;;5061221;28;21407;-76
2022/03/24 13:45:36;;;;;;;14.07;9.97;;;;;;;;;;5063593;28;20852;-77
2022/03/24 13:48:08;;;;;;;13.85;10.80;;;;;;;;;;5062948;28;20431;-76
2022/03/24 13:50:34;;;;;;;13.98;11.90;;;;;;;;;;5067314;28;21020;-77
2022/03/24 13:53:12;;;;;;;19.73;12.30;;;;;;;;;;5071451;28;20635;-76
2022/03/24 13:55:38;;;;;;;15.53;11.53;;;;;;;;;;5065341;28;20403;-76
2022/03/24 13:58:09;;;;;;;13.82;11.60;;;;;;;;;;5058286;28;20412;-77
2022/03/24 14:00:36;;;;;;;13.37;10.50;;;;;;;;;;5062066;28;20170;-76
2022/03/24 14:03:22;;;;;;;17.30;10.87;;;;;;;;;;5061424;28;20429;-76
2022/03/24 14:05:51;;;;;;;18.43;11.90;;;;;;;;;;5061282;28;20420;-76
2022/03/24 14:08:19;;;;;;;18.57;12.37;;;;;;;;;;5067158;28;20420;-76
2022/03/24 14:10:53;;;;;;;15.40;11.03;;;;;;;;;;5067367;28;20489;-76
2022/03/24 14:13:21;;;;;;;14.60;10.70;;;;;;;;;;5068708;28;20512;-77
2022/03/24 14:15:48;;;;;;;16.57;12.30;;;;;;;;;;5065930;28;20523;-76
2022/03/24 14:18:18;;;;;;;16.70;12.00;;;;;;;;;;5057770;28;20413;-77
2022/03/24 14:20:46;;;;;;;16.23;12.57;;;;;;;;;;5058477;28;20441;-76
2022/03/24 14:23:25;;;;;;;15.03;11.70;;;;;;;;;;5068939;28;20522;-76
2022/03/24 14:25:51;;;;;;;14.47;11.77;;;;;;;;;;5062825;28;20427;-77
2022/03/24 14:28:50;;;;;;;14.23;11.93;;;;;;;;;;5068248;28;20451;-77
2022/03/24 14:31:16;;;;;;;13.67;11.53;;;;;;;;;;5020355;28;20969;-76
2022/03/24 14:33:46;;;;;;;14.83;10.17;;;;;;;;;;5059218;28;20455;-76
2022/03/24 14:36:13;;;;;;;16.43;12.33;;;;;;;;;;5063179;28;20924;-77
2022/03/24 14:39:00;;;;;;;12.10;10.80;;;;;;;;;;5061513;28;20833;-76